Time;durP1;ratioP1;P1;durP2;ratioP2;P2;SDS_P1;SDS_P2;PMS_P1;PMS_P2;Temp;Humidity;BMP_temperature;BMP_pressure;BME280_temperature;BME280_humidity;BME280_pressure;Samples;Min_cycle;Max_cycle;Signal;HPM_P1;HPM_P2
2021/04/17 00:01:33;;;;;;;9.13;8.23;;;5.10;99.90;;;;;;4991010;28;20466;-68
2021/04/17 00:04:01;;;;;;;11.23;8.53;;;5.10;99.90;;;;;;4990644;28;20446;-67
2021/04/17 00:06:27;;;;;;;8.70;7.80;;;5.10;99.90;;;;;;4990761;28;20557;-68
2021/04/17 00:08:54;;;;;;;12.23;8.63;;;5.10;99.90;;;;;;4992112;28;20474;-67
2021/04/17 00:11:21;;;;;;;10.13;8.93;;;5.10;99.90;;;;;;4991408;28;20498;-68
2021/04/17 00:13:48;;;;;;;9.80;8.70;;;5.10;99.90;;;;;;4992037;28;20447;-67
2021/04/17 00:16:14;;;;;;;10.80;8.90;;;5.00;99.90;;;;;;4992064;28;20937;-67
2021/04/17 00:18:41;;;;;;;9.50;8.50;;;5.00;99.90;;;;;;4992348;28;20477;-68
2021/04/17 00:21:07;;;;;;;9.13;8.23;;;5.10;99.90;;;;;;4992397;28;20442;-68
2021/04/17 00:23:33;;;;;;;9.70;8.70;;;5.10;99.90;;;;;;4991802;28;20450;-68
2021/04/17 00:26:00;;;;;;;10.67;9.20;;;5.20;99.90;;;;;;4991964;28;20530;-67
2021/04/17 00:28:27;;;;;;;10.63;9.37;;;5.10;99.90;;;;;;4992296;28;20542;-68
2021/04/17 00:30:54;;;;;;;9.47;8.33;;;5.10;99.90;;;;;;4992329;28;20541;-68
2021/04/17 00:33:21;;;;;;;11.30;8.93;;;5.10;99.90;;;;;;4991821;28;20621;-68
2021/04/17 00:35:47;;;;;;;12.20;9.10;;;5.10;99.90;;;;;;4992317;28;20581;-68
2021/04/17 00:38:14;;;;;;;11.00;9.10;;;5.10;99.90;;;;;;4992169;28;21204;-67
2021/04/17 00:40:40;;;;;;;9.53;8.33;;;5.10;99.90;;;;;;4992222;28;20443;-67
2021/04/17 00:43:07;;;;;;;11.07;9.40;;;5.10;99.90;;;;;;4991356;28;20838;-69
2021/04/17 00:45:35;;;;;;;11.20;8.77;;;5.10;99.90;;;;;;4991880;28;20546;-68
2021/04/17 00:48:02;;;;;;;10.53;9.20;;;5.10;99.90;;;;;;4992214;28;20537;-68
2021/04/17 00:50:28;;;;;;;10.37;9.10;;;5.10;99.90;;;;;;4992170;28;20454;-68
2021/04/17 00:52:55;;;;;;;10.47;9.20;;;5.10;99.90;;;;;;4991534;28;20546;-68
2021/04/17 00:55:22;;;;;;;9.80;7.73;;;5.00;99.90;;;;;;4996673;28;20518;-69
2021/04/17 00:57:48;;;;;;;11.60;9.87;;;5.00;99.90;;;;;;4997688;28;20486;-68
2021/04/17 01:00:16;;;;;;;11.80;10.53;;;5.00;99.90;;;;;;4997017;28;20474;-68
2021/04/17 01:02:51;;;;;;;11.33;9.60;;;5.10;99.90;;;;;;4994366;28;20505;-68
2021/04/17 01:05:20;;;;;;;11.27;10.17;;;5.10;99.90;;;;;;4993596;28;20521;-69
2021/04/17 01:07:50;;;;;;;11.30;10.10;;;5.10;99.90;;;;;;4997728;28;20535;-68
2021/04/17 01:10:23;;;;;;;10.20;8.37;;;5.10;99.90;;;;;;4997327;28;20508;-68
2021/04/17 01:12:52;;;;;;;9.97;8.87;;;5.00;99.90;;;;;;4996771;28;20553;-69
2021/04/17 01:15:19;;;;;;;11.07;9.87;;;5.10;99.90;;;;;;4994709;28;20482;-67
2021/04/17 01:17:49;;;;;;;12.47;10.80;;;5.10;99.90;;;;;;4991812;28;20465;-68
2021/04/17 01:20:22;;;;;;;12.33;10.20;;;5.10;99.90;;;;;;4991779;28;20451;-68
2021/04/17 01:22:54;;;;;;;12.27;10.40;;;5.00;99.90;;;;;;4990888;28;20494;-69
2021/04/17 01:25:24;;;;;;;10.73;9.20;;;5.00;99.90;;;;;;4991252;28;20876;-68
2021/04/17 01:27:51;;;;;;;12.03;10.57;;;5.00;99.90;;;;;;4990699;28;20541;-69
2021/04/17 01:30:20;;;;;;;13.90;10.10;;;5.10;99.90;;;;;;4991215;28;20482;-68
2021/04/17 01:32:48;;;;;;;10.93;8.70;;;5.10;99.90;;;;;;4991209;28;20470;-68
2021/04/17 01:35:18;;;;;;;12.27;10.97;;;5.00;99.90;;;;;;4991126;28;21013;-68
2021/04/17 01:38:06;;;;;;;13.90;10.00;;;4.90;99.90;;;;;;4991277;28;20541;-68
2021/04/17 01:40:34;;;;;;;12.30;10.47;;;4.80;99.90;;;;;;4991285;28;20941;-69
2021/04/17 01:43:02;;;;;;;12.67;10.20;;;4.70;99.90;;;;;;4990882;28;20571;-69
2021/04/17 01:45:30;;;;;;;10.93;9.50;;;4.70;99.90;;;;;;4991195;28;20530;-68
2021/04/17 01:47:58;;;;;;;12.17;10.53;;;4.60;99.90;;;;;;4991183;28;20552;-68
2021/04/17 01:50:27;;;;;;;11.03;9.83;;;4.60;99.90;;;;;;4991101;28;20518;-68
2021/04/17 01:52:55;;;;;;;12.73;11.17;;;4.50;99.90;;;;;;4990791;28;20908;-68
2021/04/17 01:55:23;;;;;;;10.00;9.00;;;4.40;99.90;;;;;;4990865;28;20577;-69
2021/04/17 01:57:51;;;;;;;11.97;10.73;;;4.30;99.90;;;;;;4991064;28;20530;-68
2021/04/17 02:00:20;;;;;;;13.73;10.20;;;4.30;99.90;;;;;;4991043;28;20806;-69
2021/04/17 02:02:46;;;;;;;14.50;11.80;;;4.20;99.90;;;;;;4990611;28;20463;-69
2021/04/17 02:05:14;;;;;;;12.70;10.60;;;4.10;99.90;;;;;;4991225;28;20517;-68
2021/04/17 02:07:40;;;;;;;13.97;11.70;;;4.10;99.90;;;;;;4991044;28;20922;-69
2021/04/17 02:10:08;;;;;;;12.70;11.20;;;4.10;99.90;;;;;;4990547;28;20478;-69
2021/04/17 02:12:35;;;;;;;12.47;11.17;;;4.00;99.90;;;;;;4990593;28;20503;-69
2021/04/17 02:15:03;;;;;;;11.53;9.93;;;4.00;99.90;;;;;;4990579;28;20566;-69
2021/04/17 02:17:41;;;;;;;13.80;11.60;;;4.00;99.90;;;;;;4990904;28;20534;-68
2021/04/17 02:20:11;;;;;;;13.90;12.10;;;4.00;99.90;;;;;;4990673;28;20530;-69
2021/04/17 02:22:38;;;;;;;12.60;11.30;;;3.90;99.90;;;;;;4990609;28;20557;-69
2021/04/17 02:25:06;;;;;;;13.10;11.30;;;3.90;99.90;;;;;;4990729;28;20438;-69
2021/04/17 02:27:33;;;;;;;15.10;13.50;;;3.90;99.90;;;;;;4990618;28;20928;-69
2021/04/17 02:30:00;;;;;;;14.87;13.30;;;4.00;99.90;;;;;;4990494;28;20457;-69
2021/04/17 02:32:26;;;;;;;16.87;13.13;;;4.00;99.90;;;;;;4990263;28;20503;-68
2021/04/17 02:34:54;;;;;;;13.40;11.93;;;4.10;99.90;;;;;;4991789;28;20529;-68
2021/04/17 02:37:21;;;;;;;13.63;12.20;;;4.10;99.90;;;;;;4994228;28;20447;-68
2021/04/17 02:39:48;;;;;;;18.13;12.40;;;4.20;99.90;;;;;;4994187;28;20537;-67
2021/04/17 02:42:15;;;;;;;13.63;11.67;;;4.20;99.90;;;;;;4993703;28;20482;-68
2021/04/17 02:44:42;;;;;;;14.40;12.10;;;4.20;99.90;;;;;;4993850;28;20482;-68
2021/04/17 02:47:10;;;;;;;14.20;12.73;;;4.20;99.90;;;;;;4993941;28;20455;-67
2021/04/17 02:49:36;;;;;;;13.90;12.50;;;4.30;99.90;;;;;;4993999;28;21191;-68
2021/04/17 02:52:04;;;;;;;17.43;13.17;;;4.20;99.90;;;;;;4993477;28;20478;-68
2021/04/17 02:54:30;;;;;;;16.30;13.60;;;4.20;99.90;;;;;;4993371;28;20549;-67
2021/04/17 02:56:56;;;;;;;13.50;12.10;;;4.20;99.90;;;;;;4993645;28;20884;-67
2021/04/17 02:59:23;;;;;;;14.07;12.57;;;4.30;99.90;;;;;;4993880;28;20525;-68
2021/04/17 03:01:49;;;;;;;14.97;12.17;;;4.30;99.90;;;;;;4993659;28;20518;-68
2021/04/17 03:04:16;;;;;;;13.43;11.77;;;4.30;99.90;;;;;;4993361;28;20449;-68
2021/04/17 03:06:42;;;;;;;14.70;12.90;;;4.30;99.90;;;;;;4993824;28;20464;-68
2021/04/17 03:09:09;;;;;;;14.23;12.73;;;4.30;99.90;;;;;;4993370;28;21032;-68
2021/04/17 03:11:36;;;;;;;16.73;12.57;;;4.30;99.90;;;;;;4993434;28;20467;-68
2021/04/17 03:14:02;;;;;;;13.17;11.90;;;4.30;99.90;;;;;;4993144;28;20969;-68
2021/04/17 03:16:28;;;;;;;15.43;13.83;;;4.30;99.90;;;;;;4993402;28;20884;-67
2021/04/17 03:18:55;;;;;;;15.10;13.57;;;4.30;99.90;;;;;;4993286;28;20478;-67
2021/04/17 03:21:21;;;;;;;13.80;12.30;;;4.40;99.90;;;;;;4993146;28;20533;-68
2021/04/17 03:23:47;;;;;;;13.93;12.30;;;4.40;99.90;;;;;;4992786;28;20457;-68
2021/04/17 03:26:15;;;;;;;15.70;13.97;;;4.40;99.90;;;;;;4992985;28;20475;-68
2021/04/17 03:28:41;;;;;;;15.27;13.60;;;4.50;99.90;;;;;;4993294;28;20486;-68
2021/04/17 03:31:08;;;;;;;13.43;12.03;;;4.50;99.90;;;;;;4992784;28;20447;-68
2021/04/17 03:33:34;;;;;;;13.73;12.33;;;4.50;99.90;;;;;;4992540;28;20443;-69
2021/04/17 03:36:00;;;;;;;15.23;13.30;;;4.50;99.90;;;;;;4992759;28;20481;-68
2021/04/17 03:38:27;;;;;;;14.23;12.73;;;4.50;99.90;;;;;;4992873;28;20953;-68
2021/04/17 03:40:53;;;;;;;15.20;12.87;;;4.40;99.90;;;;;;4992834;28;20446;-68
2021/04/17 03:43:21;;;;;;;13.93;12.43;;;4.30;99.90;;;;;;4992234;28;20576;-68
2021/04/17 03:45:47;;;;;;;15.23;13.63;;;4.30;99.90;;;;;;4992545;28;20846;-67
2021/04/17 03:48:13;;;;;;;15.90;13.90;;;4.20;99.90;;;;;;4992804;28;20550;-68
2021/04/17 03:50:40;;;;;;;15.70;13.57;;;4.10;99.90;;;;;;4992536;28;20508;-68
2021/04/17 03:53:06;;;;;;;15.60;14.00;;;4.00;99.90;;;;;;4992128;28;20557;-68
2021/04/17 03:55:33;;;;;;;15.57;13.87;;;3.90;99.90;;;;;;4992473;28;20482;-68
2021/04/17 03:57:59;;;;;;;14.13;12.60;;;3.90;99.90;;;;;;4992588;28;20926;-68
2021/04/17 04:00:26;;;;;;;16.30;14.60;;;3.70;99.90;;;;;;4992453;28;20819;-68
2021/04/17 04:02:53;;;;;;;16.63;14.83;;;3.70;99.90;;;;;;4992023;28;20502;-68
2021/04/17 04:05:20;;;;;;;17.30;14.63;;;3.70;99.90;;;;;;4992304;28;20504;-67
2021/04/17 04:07:46;;;;;;;17.40;15.60;;;3.60;99.90;;;;;;4992185;28;21109;-67
2021/04/17 04:10:14;;;;;;;18.10;14.80;;;3.50;99.90;;;;;;4992241;28;21036;-68
2021/04/17 04:12:42;;;;;;;17.80;15.30;;;3.40;99.90;;;;;;4995293;28;20474;-68
2021/04/17 04:15:12;;;;;;;17.90;15.67;;;3.30;99.90;;;;;;4997609;28;21004;-69
2021/04/17 04:17:40;;;;;;;17.97;15.63;;;3.30;99.90;;;;;;5008583;28;20477;-67
2021/04/17 04:20:08;;;;;;;19.43;15.40;;;3.30;99.90;;;;;;5006139;28;20480;-67
2021/04/17 04:22:35;;;;;;;18.13;15.17;;;3.20;99.90;;;;;;4997918;28;20547;-67
2021/04/17 04:25:01;;;;;;;18.47;16.50;;;3.20;99.90;;;;;;4992757;28;20450;-67
2021/04/17 04:27:28;;;;;;;18.20;15.73;;;3.20;99.90;;;;;;4992138;28;20506;-68
2021/04/17 04:29:54;;;;;;;19.13;16.20;;;3.20;99.90;;;;;;4991878;28;20443;-67
2021/04/17 04:32:21;;;;;;;18.40;16.07;;;3.30;99.90;;;;;;4991661;28;20549;-68
2021/04/17 04:34:48;;;;;;;16.40;14.67;;;3.40;99.90;;;;;;4991636;28;21036;-68
2021/04/17 04:37:15;;;;;;;19.60;16.23;;;3.50;99.90;;;;;;4991968;28;20478;-67
2021/04/17 04:39:42;;;;;;;21.63;16.60;;;3.70;99.90;;;;;;4991820;28;20450;-68
2021/04/17 04:42:10;;;;;;;17.47;15.37;;;3.80;99.90;;;;;;4991528;28;20478;-68
2021/04/17 04:44:36;;;;;;;16.67;14.97;;;3.80;99.90;;;;;;4991187;28;20457;-68
2021/04/17 04:47:03;;;;;;;17.33;15.50;;;3.80;99.90;;;;;;4991349;28;20526;-68
2021/04/17 04:49:30;;;;;;;16.97;15.10;;;3.80;99.90;;;;;;4991296;28;20465;-68
2021/04/17 04:51:57;;;;;;;15.90;13.97;;;3.90;99.90;;;;;;4991413;28;20466;-68
2021/04/17 04:54:23;;;;;;;17.27;15.10;;;3.90;99.90;;;;;;4991227;28;20453;-68
2021/04/17 04:56:50;;;;;;;17.53;15.07;;;3.80;99.90;;;;;;4991180;28;20540;-68
2021/04/17 04:59:16;;;;;;;16.67;14.70;;;3.80;99.90;;;;;;4991023;28;20451;-69
2021/04/17 05:01:42;;;;;;;19.60;15.50;;;3.90;99.90;;;;;;4991012;28;20553;-68
2021/04/17 05:04:09;;;;;;;21.40;15.77;;;3.90;99.90;;;;;;4991144;28;20500;-69
2021/04/17 05:06:35;;;;;;;16.13;14.43;;;4.00;99.90;;;;;;4991290;28;20438;-68
2021/04/17 05:09:02;;;;;;;17.10;15.20;;;4.00;99.90;;;;;;4991376;28;21244;-68
2021/04/17 05:11:29;;;;;;;18.03;15.70;;;4.00;99.90;;;;;;4991527;28;20480;-68
2021/04/17 05:13:57;;;;;;;17.27;15.47;;;4.20;99.90;;;;;;4990915;28;20457;-68
2021/04/17 05:16:23;;;;;;;17.80;14.57;;;4.30;99.90;;;;;;4990949;28;20871;-68
2021/04/17 05:18:49;;;;;;;15.97;14.23;;;4.30;99.90;;;;;;4991344;28;20934;-68
2021/04/17 05:21:16;;;;;;;16.30;14.57;;;4.50;99.90;;;;;;4991322;28;20447;-68
2021/04/17 05:23:42;;;;;;;20.37;15.37;;;4.50;99.90;;;;;;4990417;28;20555;-68
2021/04/17 05:26:09;;;;;;;15.40;13.80;;;4.60;99.90;;;;;;4991027;28;21064;-68
2021/04/17 05:28:35;;;;;;;14.63;12.80;;;4.70;99.90;;;;;;4991049;28;20478;-68
2021/04/17 05:31:02;;;;;;;16.27;13.93;;;4.80;99.90;;;;;;4990926;28;20819;-68
2021/04/17 05:33:28;;;;;;;15.67;13.93;;;4.90;99.90;;;;;;4990347;28;21081;-68
2021/04/17 05:35:54;;;;;;;16.93;13.13;;;5.00;99.90;;;;;;4990834;28;21001;-68
2021/04/17 05:38:21;;;;;;;16.33;13.20;;;5.10;99.90;;;;;;4990912;28;20453;-68
2021/04/17 05:40:47;;;;;;;12.73;11.43;;;5.20;99.90;;;;;;4990639;28;20494;-68
2021/04/17 05:43:14;;;;;;;15.83;13.00;;;5.30;99.90;;;;;;4990166;28;20482;-68
2021/04/17 05:45:41;;;;;;;14.17;12.57;;;5.30;99.90;;;;;;4990595;28;20449;-67
2021/04/17 05:48:08;;;;;;;14.23;12.43;;;5.40;99.90;;;;;;4990755;28;20541;-68
2021/04/17 05:50:34;;;;;;;14.30;12.90;;;5.50;99.90;;;;;;4990746;28;20457;-68
2021/04/17 05:53:00;;;;;;;16.70;13.50;;;5.60;99.90;;;;;;4990258;28;20466;-68
2021/04/17 05:55:27;;;;;;;16.00;13.13;;;5.60;99.90;;;;;;4990848;28;20489;-68
2021/04/17 05:57:53;;;;;;;14.57;12.93;;;5.60;99.90;;;;;;4990666;28;20585;-67
2021/04/17 06:00:22;;;;;;;15.13;13.53;;;5.60;99.90;;;;;;4990401;28;20533;-67
2021/04/17 06:02:48;;;;;;;18.00;14.83;;;5.60;99.90;;;;;;4990100;28;20501;-69
2021/04/17 06:05:15;;;;;;;15.50;13.40;;;5.60;99.90;;;;;;4990519;28;20881;-66
2021/04/17 06:07:41;;;;;;;14.40;12.90;;;5.60;99.90;;;;;;4990456;28;20459;-68
2021/04/17 06:10:09;;;;;;;15.40;13.57;;;5.70;99.90;;;;;;4992240;28;20489;-68
2021/04/17 06:12:36;;;;;;;16.37;13.57;;;5.70;99.90;;;;;;4993698;28;20501;-68
2021/04/17 06:15:02;;;;;;;18.60;13.37;;;5.80;99.90;;;;;;4994294;28;20482;-67
2021/04/17 06:17:30;;;;;;;16.00;13.97;;;5.90;99.90;;;;;;4994191;28;20486;-68
2021/04/17 06:19:56;;;;;;;17.60;13.90;;;5.90;99.90;;;;;;4994225;28;20442;-68
2021/04/17 06:22:22;;;;;;;15.13;13.60;;;6.00;99.90;;;;;;4993823;28;20561;-68
2021/04/17 06:24:49;;;;;;;14.47;13.07;;;6.10;99.90;;;;;;4994007;28;20445;-68
2021/04/17 06:27:15;;;;;;;14.90;13.03;;;6.20;99.90;;;;;;4993725;28;20466;-68
2021/04/17 06:29:41;;;;;;;15.37;13.10;;;6.20;99.90;;;;;;4994342;28;21052;-68
2021/04/17 06:32:08;;;;;;;15.77;14.10;;;6.40;99.90;;;;;;4993958;28;20554;-68
2021/04/17 06:34:35;;;;;;;19.10;14.87;;;6.60;99.90;;;;;;4993583;28;20526;-68
2021/04/17 06:37:02;;;;;;;15.90;14.07;;;6.80;99.90;;;;;;4993877;28;20492;-68
2021/04/17 06:39:28;;;;;;;15.83;14.23;;;6.90;99.90;;;;;;4993872;28;20476;-68
2021/04/17 06:41:59;;;;;;;15.90;14.07;;;7.10;99.90;;;;;;4993745;28;20564;-69
2021/04/17 06:44:26;;;;;;;14.87;13.20;;;7.30;99.90;;;;;;4993738;28;20472;-68
2021/04/17 06:46:52;;;;;;;17.03;14.40;;;7.50;99.90;;;;;;4994000;28;21233;-68
2021/04/17 06:49:18;;;;;;;16.53;14.47;;;7.60;99.90;;;;;;4994202;28;20534;-68
2021/04/17 06:51:48;;;;;;;16.30;14.60;;;7.60;99.90;;;;;;4993731;28;20484;-69
2021/04/17 06:54:19;;;;;;;16.67;14.97;;;7.70;99.90;;;;;;4993446;28;20472;-69
2021/04/17 06:56:47;;;;;;;17.20;15.40;;;7.90;99.90;;;;;;4993442;28;20486;-68
2021/04/17 06:59:14;;;;;;;16.27;13.67;;;7.80;99.90;;;;;;4993485;28;20451;-69
2021/04/17 07:01:41;;;;;;;15.97;13.00;;;7.90;99.90;;;;;;4994742;28;20549;-68
2021/04/17 07:04:07;;;;;;;16.10;13.40;;;8.00;99.90;;;;;;4994455;28;20449;-69
2021/04/17 07:06:34;;;;;;;14.23;12.83;;;8.10;99.90;;;;;;5000089;28;20493;-67
2021/04/17 07:09:02;;;;;;;17.53;13.00;;;8.10;99.90;;;;;;4995410;28;20446;-73
2021/04/17 07:11:28;;;;;;;15.40;13.73;;;8.20;99.90;;;;;;4995481;28;20488;-72
2021/04/17 07:14:08;;;;;;;16.97;13.43;;;8.20;99.90;;;;;;4995614;28;20812;-69
2021/04/17 07:16:55;;;;;;;16.30;13.50;;;8.30;99.90;;;;;;4998061;28;20568;-66
2021/04/17 07:19:22;;;;;;;15.40;13.73;;;8.40;99.90;;;;;;4997854;28;20542;-67
2021/04/17 07:21:48;;;;;;;15.10;12.60;;;8.40;99.90;;;;;;5004681;28;21020;-66
2021/04/17 07:24:25;;;;;;;14.57;13.00;;;8.50;99.90;;;;;;4999242;28;21130;-67
2021/04/17 07:26:52;;;;;;;14.73;13.23;;;8.50;99.90;;;;;;4998555;28;20561;-66
2021/04/17 07:29:19;;;;;;;16.30;13.77;;;8.80;99.90;;;;;;5002404;28;20915;-66
2021/04/17 07:31:51;;;;;;;15.00;13.40;;;9.00;99.90;;;;;;5000241;28;21022;-66
2021/04/17 07:34:20;;;;;;;13.30;11.93;;;8.90;99.90;;;;;;5001129;28;20441;-67
2021/04/17 07:36:55;;;;;;;14.57;12.97;;;8.80;99.90;;;;;;5009019;28;20482;-66
2021/04/17 07:39:35;;;;;;;14.30;12.23;;;9.00;99.90;;;;;;5012039;28;20531;-68
2021/04/17 07:42:03;;;;;;;13.83;12.50;;;9.20;99.90;;;;;;5011610;28;20508;-68
2021/04/17 07:44:31;;;;;;;17.00;14.40;;;9.50;99.90;;;;;;5011415;28;20442;-67
2021/04/17 07:46:57;;;;;;;15.73;13.67;;;9.70;99.90;;;;;;5011902;28;20497;-67
2021/04/17 07:49:25;;;;;;;14.10;12.60;;;9.70;99.90;;;;;;5011623;28;20456;-67
2021/04/17 07:51:56;;;;;;;13.63;12.23;;;9.50;99.90;;;;;;5011454;28;20474;-67
2021/04/17 07:54:23;;;;;;;13.20;11.90;;;9.50;99.90;;;;;;5011150;28;20453;-68
2021/04/17 07:56:50;;;;;;;14.03;12.53;;;9.60;99.90;;;;;;5011299;28;20473;-69
2021/04/17 07:59:21;;;;;;;13.83;12.07;;;9.70;99.90;;;;;;5011349;28;20449;-68
2021/04/17 08:01:50;;;;;;;12.87;11.47;;;9.90;99.90;;;;;;5011439;28;20469;-68
2021/04/17 08:04:25;;;;;;;15.10;11.23;;;10.00;99.90;;;;;;5011005;28;20446;-68
2021/04/17 08:06:53;;;;;;;12.83;11.37;;;10.10;99.90;;;;;;5011143;28;20450;-68
2021/04/17 08:09:22;;;;;;;15.97;13.10;;;10.10;99.90;;;;;;5010623;28;20433;-68
2021/04/17 08:11:51;;;;;;;12.27;10.77;;;10.10;99.90;;;;;;5009365;28;20544;-68
2021/04/17 08:14:21;;;;;;;10.73;9.57;;;10.20;99.90;;;;;;4992724;28;20500;-68
2021/04/17 08:16:48;;;;;;;11.00;9.87;;;10.20;99.90;;;;;;4991879;28;20486;-67
2021/04/17 08:19:15;;;;;;;9.97;8.97;;;10.20;99.90;;;;;;4993572;28;20445;-68
2021/04/17 08:21:42;;;;;;;11.17;9.53;;;10.10;99.90;;;;;;5002742;28;21186;-68
2021/04/17 08:24:11;;;;;;;11.43;10.20;;;10.00;99.90;;;;;;4993687;28;20526;-67
2021/04/17 08:26:39;;;;;;;13.50;10.27;;;10.10;99.90;;;;;;5007221;28;20450;-68
2021/04/17 08:29:06;;;;;;;12.00;10.63;;;10.10;99.90;;;;;;5010085;28;20500;-67
2021/04/17 08:31:34;;;;;;;11.60;9.73;;;10.20;99.90;;;;;;5009679;28;20469;-68
2021/04/17 08:34:12;;;;;;;9.53;8.53;;;10.50;99.90;;;;;;5008875;28;20509;-67
2021/04/17 08:36:41;;;;;;;11.20;10.10;;;10.80;99.90;;;;;;5009746;28;20516;-68
2021/04/17 08:39:28;;;;;;;11.27;9.83;;;11.10;99.20;;;;;;5009903;28;20446;-68
2021/04/17 08:41:54;;;;;;;9.83;8.30;;;11.00;97.80;;;;;;4997728;28;20554;-69
2021/04/17 08:44:31;;;;;;;10.07;9.07;;;11.10;97.90;;;;;;4978179;28;20532;-68
2021/04/17 08:46:58;;;;;;;10.17;9.00;;;10.70;97.60;;;;;;4979486;28;20858;-68
2021/04/17 08:49:26;;;;;;;10.40;9.27;;;10.60;99.10;;;;;;4981158;28;20570;-68
2021/04/17 08:52:14;;;;;;;9.73;8.67;;;10.80;98.90;;;;;;4984588;28;20502;-68
2021/04/17 08:54:41;;;;;;;9.73;8.73;;;11.00;97.70;;;;;;4977101;28;20440;-68
2021/04/17 08:57:13;;;;;;;11.20;9.00;;;11.30;97.70;;;;;;4974546;28;21500;-68
2021/04/17 08:59:42;;;;;;;10.97;9.00;;;11.10;95.90;;;;;;4972862;28;20472;-68
2021/04/17 09:02:11;;;;;;;9.00;8.17;;;11.40;96.90;;;;;;4976844;28;21065;-69
2021/04/17 09:05:05;;;;;;;9.90;8.90;;;11.90;97.50;;;;;;4988324;28;20454;-68
2021/04/17 09:07:34;;;;;;;10.70;9.60;;;12.10;95.80;;;;;;4989759;28;20457;-67
2021/04/17 09:10:28;;;;;;;8.60;7.50;;;12.40;94.80;;;;;;4998307;28;20521;-68
2021/04/17 09:13:34;;;;;;;9.70;8.70;;;12.40;94.60;;;;;;4994825;28;21019;-68
2021/04/17 09:16:05;;;;;;;11.07;8.40;;;12.50;94.20;;;;;;4987383;28;20858;-68
2021/04/17 09:18:44;;;;;;;9.60;7.90;;;12.30;94.70;;;;;;5003347;28;20468;-68
2021/04/17 09:21:33;;;;;;;8.67;7.87;;;12.60;94.90;;;;;;5008422;28;20540;-68
2021/04/17 09:24:02;;;;;;;9.00;8.10;;;13.00;94.40;;;;;;5009013;28;20450;-68
2021/04/17 09:26:34;;;;;;;10.67;8.20;;;13.40;93.70;;;;;;5008864;28;20837;-68
2021/04/17 09:29:03;;;;;;;8.80;7.73;;;13.90;92.10;;;;;;5006672;28;20557;-68
2021/04/17 09:31:34;;;;;;;9.07;8.13;;;14.40;91.30;;;;;;5008935;28;20552;-68
2021/04/17 09:34:00;;;;;;;9.40;8.50;;;14.20;91.40;;;;;;5009023;28;21021;-68
2021/04/17 09:36:27;;;;;;;11.07;8.90;;;14.00;87.90;;;;;;5008779;28;20864;-68
2021/04/17 09:38:53;;;;;;;9.20;8.13;;;13.90;90.80;;;;;;5008760;28;20515;-68
2021/04/17 09:41:20;;;;;;;11.50;8.67;;;13.90;90.50;;;;;;5006734;28;20960;-68
2021/04/17 09:43:54;;;;;;;9.30;7.70;;;13.70;89.90;;;;;;5008691;28;20532;-67
2021/04/17 09:46:20;;;;;;;9.00;7.23;;;13.60;90.40;;;;;;4990486;28;20611;-67
2021/04/17 09:48:48;;;;;;;9.77;7.67;;;13.80;90.20;;;;;;4992588;28;20537;-68
2021/04/17 09:51:22;;;;;;;8.00;7.20;;;13.20;87.20;;;;;;4993305;28;20446;-68
2021/04/17 09:53:50;;;;;;;7.20;6.60;;;12.80;91.00;;;;;;5006190;28;20442;-69
2021/04/17 09:56:27;;;;;;;8.47;7.50;;;13.10;90.90;;;;;;4988192;28;20479;-69
2021/04/17 09:58:56;;;;;;;7.90;7.10;;;13.50;92.00;;;;;;4996220;28;20532;-68
2021/04/17 10:01:22;;;;;;;7.97;7.17;;;13.60;88.30;;;;;;4990583;28;20529;-68
2021/04/17 10:03:53;;;;;;;7.43;6.53;;;13.40;86.50;;;;;;4985566;28;20550;-68
2021/04/17 10:06:24;;;;;;;7.23;6.50;;;13.10;87.30;;;;;;4988885;28;20437;-67
2021/04/17 10:08:51;;;;;;;9.10;7.23;;;12.80;86.20;;;;;;4994348;28;20508;-68
2021/04/17 10:11:21;;;;;;;8.27;6.47;;;12.60;88.30;;;;;;4991849;28;20883;-68
2021/04/17 10:13:48;;;;;;;8.40;7.47;;;12.30;90.00;;;;;;4994661;28;20446;-69
2021/04/17 10:16:22;;;;;;;11.07;8.07;;;12.30;90.30;;;;;;4995458;28;20479;-68
2021/04/17 10:18:49;;;;;;;8.40;7.20;;;12.10;91.20;;;;;;5000551;28;20465;-67
2021/04/17 10:21:22;;;;;;;9.60;6.83;;;12.00;90.50;;;;;;4992134;28;20452;-68
2021/04/17 10:24:18;;;;;;;10.83;7.43;;;11.90;92.40;;;;;;4989103;28;20467;-68
2021/04/17 10:27:01;;;;;;;7.93;6.80;;;12.60;93.60;;;;;;4981710;28;20943;-68
2021/04/17 10:29:39;;;;;;;10.43;7.80;;;13.20;90.80;;;;;;4983136;28;20442;-68
2021/04/17 10:32:11;;;;;;;8.23;7.13;;;13.20;90.80;;;;;;4981516;28;20462;-68
2021/04/17 10:34:38;;;;;;;7.70;6.00;;;13.00;88.80;;;;;;5000487;28;20485;-68
2021/04/17 10:37:08;;;;;;;7.60;6.77;;;12.80;89.30;;;;;;4981790;28;20558;-68
2021/04/17 10:39:34;;;;;;;8.00;6.53;;;12.80;89.00;;;;;;4983620;28;21074;-68
2021/04/17 10:42:03;;;;;;;10.73;7.13;;;12.80;90.10;;;;;;4972074;28;20558;-68
2021/04/17 10:44:30;;;;;;;8.50;7.70;;;12.90;90.60;;;;;;4972147;28;20447;-68
2021/04/17 10:46:59;;;;;;;7.87;6.10;;;13.60;89.00;;;;;;4976702;28;20930;-68
2021/04/17 10:49:30;;;;;;;7.37;6.47;;;13.90;85.80;;;;;;4987128;28;20501;-68
2021/04/17 10:51:57;;;;;;;7.57;6.80;;;14.50;87.40;;;;;;4989652;28;21215;-68
2021/04/17 10:54:25;;;;;;;6.67;5.97;;;15.40;86.50;;;;;;4990393;28;20800;-68
2021/04/17 10:57:04;;;;;;;8.70;6.37;;;15.50;80.80;;;;;;4990362;28;20490;-67
2021/04/17 10:59:52;;;;;;;7.40;5.43;;;15.60;85.10;;;;;;4990594;28;20446;-67
2021/04/17 11:02:26;;;;;;;6.90;5.17;;;15.70;79.10;;;;;;4973538;28;20464;-67
2021/04/17 11:04:53;;;;;;;5.67;5.17;;;15.60;76.70;;;;;;4971636;28;20443;-67
2021/04/17 11:07:27;;;;;;;6.30;5.70;;;15.70;74.60;;;;;;4993588;28;20442;-67
2021/04/17 11:09:54;;;;;;;9.53;5.97;;;15.20;76.50;;;;;;4991454;28;20493;-67
2021/04/17 11:12:26;;;;;;;7.80;4.97;;;14.40;76.90;;;;;;4991403;28;20458;-67
2021/04/17 11:15:07;;;;;;;6.50;4.87;;;14.10;80.10;;;;;;4990620;28;20443;-67
2021/04/17 11:17:34;;;;;;;5.10;4.60;;;14.50;79.20;;;;;;4988750;28;20562;-67
2021/04/17 11:20:14;;;;;;;7.50;5.20;;;15.20;80.60;;;;;;4991640;28;20457;-67
2021/04/17 11:22:42;;;;;;;5.70;5.10;;;16.20;78.10;;;;;;4991236;28;21040;-67
2021/04/17 11:25:10;;;;;;;6.67;5.00;;;17.20;77.80;;;;;;4991077;28;20932;-67
2021/04/17 11:27:37;;;;;;;8.23;4.97;;;17.40;72.10;;;;;;4991562;28;20538;-67
2021/04/17 11:30:06;;;;;;;5.97;4.80;;;17.50;71.00;;;;;;4991154;28;21148;-67
2021/04/17 11:32:33;;;;;;;5.33;4.70;;;17.70;66.60;;;;;;4991054;28;20470;-67
2021/04/17 11:35:03;;;;;;;7.13;6.00;;;17.10;65.20;;;;;;4990727;28;20538;-67
2021/04/17 11:37:30;;;;;;;5.83;5.20;;;17.30;70.40;;;;;;4992955;28;20514;-67
2021/04/17 11:39:57;;;;;;;6.03;5.03;;;17.10;65.00;;;;;;4991314;28;20454;-66
2021/04/17 11:49:08;;;;;;;5.97;5.00;;;16.90;69.60;;;;;;4984540;28;20461;-67
2021/04/17 11:51:35;;;;;;;9.00;5.17;;;17.20;65.60;;;;;;4992256;28;20588;-67
2021/04/17 11:54:01;;;;;;;7.10;5.20;;;16.20;64.40;;;;;;5002390;28;20441;-68
2021/04/17 11:56:28;;;;;;;182.83;20.07;;;15.40;71.30;;;;;;5006176;28;20944;-67
2021/04/17 11:58:54;;;;;;;6.30;4.07;;;15.40;69.70;;;;;;5004535;28;20453;-68
2021/04/17 12:01:21;;;;;;;56.43;9.87;;;15.10;66.20;;;;;;5004631;28;20542;-68
2021/04/17 12:03:48;;;;;;;26.57;6.80;;;14.40;70.50;;;;;;5005355;28;20455;-68
2021/04/17 12:06:15;;;;;;;13.27;4.73;;;13.90;73.00;;;;;;5003368;28;20435;-67
2021/04/17 12:08:41;;;;;;;5.57;4.27;;;13.80;72.00;;;;;;5003131;28;20866;-67
2021/04/17 12:11:08;;;;;;;4.40;3.90;;;13.80;74.70;;;;;;5007003;28;20471;-68
2021/04/17 12:13:36;;;;;;;7.13;4.00;;;14.10;76.90;;;;;;5005977;28;20541;-68
2021/04/17 12:16:04;;;;;;;5.77;4.27;;;13.80;70.60;;;;;;5004347;28;20489;-68
2021/04/17 12:18:30;;;;;;;7.03;3.90;;;13.80;73.90;;;;;;5003597;28;21027;-68
2021/04/17 12:20:57;;;;;;;7.27;4.50;;;14.30;71.20;;;;;;5002301;28;20573;-68
2021/04/17 12:23:24;;;;;;;5.30;4.20;;;15.10;75.50;;;;;;5002525;28;20462;-68
2021/04/17 12:25:50;;;;;;;6.57;4.50;;;15.80;72.30;;;;;;5002245;28;20500;-68
2021/04/17 12:28:17;;;;;;;5.37;4.03;;;16.20;71.10;;;;;;4997735;28;20525;-68
2021/04/17 12:30:44;;;;;;;6.53;4.00;;;16.30;70.40;;;;;;5004525;28;20450;-69
2021/04/17 12:33:11;;;;;;;4.63;3.77;;;16.40;67.60;;;;;;5006048;28;20465;-69
2021/04/17 12:35:38;;;;;;;4.40;3.77;;;16.00;65.50;;;;;;4991475;28;20446;-69
2021/04/17 12:38:05;;;;;;;5.00;3.60;;;15.70;65.40;;;;;;4990145;28;20536;-69
2021/04/17 12:40:32;;;;;;;3.97;2.93;;;15.90;69.10;;;;;;4990546;28;20460;-68
2021/04/17 12:42:59;;;;;;;3.40;2.60;;;15.90;62.70;;;;;;4989646;28;20565;-68
2021/04/17 12:45:26;;;;;;;3.60;2.87;;;15.40;61.00;;;;;;4990422;28;20522;-68
2021/04/17 12:47:52;;;;;;;6.67;3.43;;;14.70;63.20;;;;;;4995727;28;20438;-69
2021/04/17 12:50:18;;;;;;;4.07;2.83;;;14.00;64.30;;;;;;5006758;28;20540;-68
2021/04/17 12:52:45;;;;;;;5.00;3.10;;;13.20;67.30;;;;;;4985220;28;20561;-68
2021/04/17 12:55:12;;;;;;;7.40;3.87;;;13.00;72.10;;;;;;4995682;28;20451;-68